Catàleg de serveis del Meteocat
Campanya meteocatpedra

Dades de l'estació automàtica Alcarràs

?
?
Resum diari 20:30 TU
Dades diàries de l'estació meteorològica
Temperatura mitjana 25.0 °C
Temperatura màxima 33.2 °C 15:08 TU
Temperatura mínima 17.7 °C 5:00 TU
Humitat relativa mitjana 66%
Precipitació acumulada 0.0 mm
Ratxa màxima del vent (2 m) 14.0 km/h - 284º 11:37 TU

El tram horari està expressat en Temps Universal (TU). Cal sumar una hora en horari d'hivern i dues en horari d'estiu per passar a l'hora oficial.

Alcarràs

Metadades estació meteorol´gica
Municipi Alcarràs
Comarca Segrià
Altitud 122 m
Data alta 31.07.2013
Estat actual Operativa
Dades de període
Període
TU
TM
°C
TX
°C
TN
°C
HRM
%
PPT
mm
VVM (2 m)
km/h
DVM (2 m)
graus
VVX (2 m)
km/h
00:00 - 00:30 18.6 18.7 18.3 97 0.0 0.7 35 2.9
00:30 - 01:00 18.4 18.7 18.2 99 0.0 0.4 16 2.2
01:00 - 01:30 18.2 18.4 18.1 100 0.0 0.7 338 2.9
01:30 - 02:00 18.1 18.4 17.8 100 0.0 0.0 144 1.8
02:00 - 02:30 18.1 18.2 17.8 100 0.0 0.4 5 2.9
02:30 - 03:00 18.6 19.0 18.2 99 0.0 0.4 260 4.7
03:00 - 03:30 19.1 19.2 19.0 96 0.0 0.4 158 2.2
03:30 - 04:00 18.9 19.2 18.7 99 0.0 1.1 169 3.2
04:00 - 04:30 18.5 18.7 18.1 100 0.0 0.0 194 1.8
04:30 - 05:00 17.8 18.1 17.7 100 0.0 0.0 193 1.1
05:00 - 05:30 18.4 19.2 17.7 99 0.0 0.4 209 2.9
05:30 - 06:00 19.7 20.1 19.2 87 0.0 1.1 177 3.2
06:00 - 06:30 20.4 20.8 20.1 81 0.0 1.8 172 7.2
06:30 - 07:00 21.4 22.0 20.9 74 0.0 1.4 178 9.0
07:00 - 07:30 22.0 22.3 21.6 70 0.0 2.5 184 10.4
07:30 - 08:00 22.8 23.6 22.1 67 0.0 2.5 190 9.7
08:00 - 08:30 23.9 24.4 23.4 63 0.0 2.9 201 10.1
08:30 - 09:00 24.2 24.7 23.8 62 0.0 4.0 192 10.4
09:00 - 09:30 25.0 25.6 24.3 59 0.0 4.0 192 10.8
09:30 - 10:00 26.0 26.8 25.4 56 0.0 4.0 186 13.7
10:00 - 10:30 27.2 27.7 26.5 52 0.0 3.6 197 9.7
10:30 - 11:00 28.2 28.7 27.5 48 0.0 3.6 188 11.9
11:00 - 11:30 29.0 29.6 27.9 47 0.0 3.2 210 11.2
11:30 - 12:00 29.8 30.4 29.2 45 0.0 3.6 216 14.0
12:00 - 12:30 30.1 30.8 29.4 45 0.0 4.0 208 10.1
12:30 - 13:00 30.9 31.6 29.7 43 0.0 3.2 192 11.9
13:00 - 13:30 30.9 31.5 30.4 41 0.0 4.0 174 11.5
13:30 - 14:00 31.6 32.4 30.8 39 0.0 2.9 186 10.4
14:00 - 14:30 32.1 32.5 31.3 38 0.0 2.9 175 7.6
14:30 - 15:00 32.0 32.4 31.6 38 0.0 3.2 166 9.7
15:00 - 15:30 32.2 33.2 31.5 39 0.0 2.9 175 11.2
15:30 - 16:00 32.3 32.7 31.8 38 0.0 3.6 165 10.1
16:00 - 16:30 32.2 32.7 31.7 38 0.0 2.9 165 7.6
16:30 - 17:00 32.4 32.7 32.2 38 0.0 2.2 165 5.0
17:00 - 17:30 32.1 33.0 31.2 39 0.0 1.4 174 6.1
17:30 - 18:00 30.4 31.2 29.6 47 0.0 1.4 177 3.2
18:00 - 18:30 29.5 29.8 29.3 46 0.0 0.4 185 1.8
18:30 - 19:00 27.1 29.6 25.5 54 0.0 0.4 181 2.5
19:00 - 19:30 24.8 25.5 24.4 67 0.0 0.4 306 3.2
19:30 - 20:00 24.3 25.1 23.6 66 0.0 1.1 243 9.4
20:00 - 20:30 23.4 24.8 22.1 69 0.0 0.7 9 2.9
20:30 - 21:00 21.9 22.2 21.6 79 0.0 0.4 26 4.7
21:00 - 21:30 21.5 21.9 21.2 83 0.0 0.7 38 4.0

Les dades en taronja només han passat un control de qualitat automàtic. Resta pendent la seva validació definitiva.